createdAt,value
2023-05-22T00:02:23.236Z,68.60
2023-05-22T00:07:30.047Z,70.03
2023-05-22T00:12:33.793Z,69.70
2023-05-22T00:17:38.063Z,69.62
2023-05-22T00:22:42.579Z,69.78
2023-05-22T00:27:47.895Z,69.94
2023-05-22T00:32:51.848Z,70.91
2023-05-22T00:37:55.810Z,70.17
2023-05-22T00:42:59.517Z,70.55
2023-05-22T00:48:04.428Z,70.25
2023-05-22T00:53:08.647Z,70.22
2023-05-22T00:58:16.444Z,70.11
2023-05-22T01:03:27.184Z,70.18
2023-05-22T01:08:31.329Z,70.35
2023-05-22T01:13:52.234Z,70.17
2023-05-22T01:19:31.560Z,70.60
2023-05-22T01:24:44.433Z,70.31
2023-05-22T01:30:11.584Z,70.51
2023-05-22T01:35:19.212Z,71.20
2023-05-22T01:40:23.551Z,71.09
2023-05-22T01:45:27.379Z,71.32
2023-05-22T01:50:31.214Z,71.37
2023-05-22T01:56:02.014Z,71.87
2023-05-22T02:01:09.229Z,71.53
2023-05-22T02:06:14.516Z,71.63
2023-05-22T02:11:20.238Z,71.63
2023-05-22T02:16:26.345Z,71.43
2023-05-22T02:21:29.989Z,71.34
2023-05-22T02:26:35.969Z,71.72
2023-05-22T02:31:39.868Z,71.42
2023-05-22T02:36:44.286Z,71.74
2023-05-22T02:41:48.588Z,71.74
2023-05-22T02:46:52.538Z,71.81
2023-05-22T02:51:56.288Z,71.85
2023-05-22T02:57:00.336Z,71.98
2023-05-22T03:02:06.109Z,71.82
2023-05-22T03:07:11.054Z,71.73
2023-05-22T03:12:15.154Z,71.52
2023-05-22T03:17:18.821Z,71.49
2023-05-22T03:22:23.562Z,71.38
2023-05-22T03:27:27.816Z,71.88
2023-05-22T03:32:31.885Z,71.82
2023-05-22T03:37:36.681Z,71.14
2023-05-22T03:42:40.617Z,71.32
2023-05-22T03:47:44.360Z,70.41
2023-05-22T03:52:49.831Z,68.44
2023-05-22T03:57:53.464Z,67.28
2023-05-22T04:02:59.156Z,65.97
2023-05-22T04:08:03.567Z,64.63
2023-05-22T04:13:07.319Z,61.69
2023-05-22T04:18:12.597Z,57.59
2023-05-22T04:23:16.400Z,54.36
2023-05-22T04:28:23.467Z,51.32
2023-05-22T04:33:33.355Z,48.98
2023-05-22T04:38:37.646Z,46.65
2023-05-22T04:43:41.327Z,46.40
2023-05-22T04:48:45.157Z,44.34
2023-05-22T04:53:50.154Z,41.09
2023-05-22T04:58:54.269Z,40.63
2023-05-22T05:03:58.162Z,40.43
2023-05-22T05:09:02.516Z,40.87
2023-05-22T05:14:06.344Z,43.36
2023-05-22T05:19:10.146Z,46.96
2023-05-22T05:24:13.816Z,49.36
2023-05-22T05:29:20.705Z,51.07
2023-05-22T05:34:45.951Z,52.23
2023-05-22T05:39:59.392Z,52.79
2023-05-22T05:45:06.573Z,53.16
2023-05-22T05:50:11.407Z,52.89
2023-05-22T05:55:16.178Z,53.32
2023-05-22T06:00:20.252Z,53.67
2023-05-22T06:05:30.354Z,53.89
2023-05-22T06:10:44.197Z,53.87
2023-05-22T06:15:54.892Z,53.79
2023-05-22T06:20:59.391Z,53.78
2023-05-22T06:26:03.671Z,53.57
2023-05-22T06:31:10.194Z,53.46
2023-05-22T06:36:16.609Z,53.74
2023-05-22T06:41:24.746Z,53.57
2023-05-22T06:46:33.107Z,53.09
2023-05-22T06:51:40.709Z,53.40
2023-05-22T06:56:49.237Z,53.03
2023-05-22T07:01:55.498Z,52.66
2023-05-22T07:07:09.564Z,52.29
2023-05-22T07:12:14.049Z,52.27
2023-05-22T07:17:19.084Z,51.49
2023-05-22T07:22:25.399Z,51.51
2023-05-22T07:27:29.358Z,51.35
2023-05-22T07:32:33.843Z,50.27
2023-05-22T07:37:39.083Z,50.07
2023-05-22T07:42:42.959Z,50.20
2023-05-22T07:47:48.218Z,48.95
2023-05-22T07:52:52.112Z,48.74
2023-05-22T07:57:56.541Z,48.69
2023-05-22T08:03:05.655Z,48.76
2023-05-22T08:08:10.695Z,48.11
2023-05-22T08:13:17.159Z,47.21
2023-05-22T08:18:22.800Z,47.79
2023-05-22T08:23:29.562Z,47.87
2023-05-22T08:28:33.342Z,47.04
2023-05-22T08:33:38.660Z,45.93
2023-05-22T08:38:42.432Z,46.60
2023-05-22T08:43:47.035Z,45.09
2023-05-22T08:48:52.403Z,44.21
2023-05-22T08:53:59.695Z,43.56
2023-05-22T08:59:04.604Z,42.61
2023-05-22T09:04:08.518Z,39.66
2023-05-22T09:09:12.840Z,40.03
2023-05-22T09:14:17.224Z,40.14
2023-05-22T09:19:24.415Z,39.07
2023-05-22T09:24:29.086Z,38.80
2023-05-22T09:29:54.510Z,38.59
2023-05-22T09:35:05.324Z,38.15
2023-05-22T09:40:14.589Z,36.76
2023-05-22T09:45:20.664Z,36.17
2023-05-22T09:50:25.288Z,38.30
2023-05-22T09:55:32.732Z,36.51
2023-05-22T10:00:37.119Z,35.28
2023-05-22T10:05:44.045Z,34.57
2023-05-22T10:10:52.369Z,34.19
2023-05-22T10:15:56.975Z,34.43
2023-05-22T10:21:01.368Z,33.94
2023-05-22T10:26:09.356Z,33.82
2023-05-22T10:31:58.314Z,35.24
2023-05-22T10:37:38.938Z,35.54
2023-05-22T10:42:56.616Z,35.61
2023-05-22T10:48:08.967Z,34.95
2023-05-22T10:53:41.462Z,34.55
2023-05-22T10:58:59.543Z,34.51
2023-05-22T11:04:26.072Z,36.31
2023-05-22T11:09:33.906Z,35.89
2023-05-22T11:14:37.848Z,35.08
2023-05-22T11:19:42.415Z,34.97
2023-05-22T11:24:49.360Z,36.06
2023-05-22T11:29:53.261Z,35.59
2023-05-22T11:34:58.113Z,35.08
2023-05-22T11:40:06.216Z,35.12
2023-05-22T11:45:11.974Z,33.84
2023-05-22T11:50:22.751Z,34.33
2023-05-22T11:55:34.084Z,33.96
2023-05-22T12:00:38.699Z,35.29
2023-05-22T12:05:46.607Z,34.27
2023-05-22T12:10:51.116Z,33.88
2023-05-22T12:15:57.813Z,33.91
2023-05-22T12:21:10.752Z,33.30
2023-05-22T12:26:19.950Z,34.55
2023-05-22T12:31:23.667Z,35.23
2023-05-22T12:36:39.647Z,33.79
2023-05-22T12:41:44.195Z,33.46
2023-05-22T12:46:48.227Z,34.60
2023-05-22T12:51:53.054Z,34.13
2023-05-22T12:56:56.901Z,32.44
2023-05-22T13:02:04.467Z,33.87
2023-05-22T13:07:08.186Z,33.70
2023-05-22T13:12:11.906Z,32.27
2023-05-22T13:17:15.712Z,32.23
2023-05-22T13:22:20.654Z,32.63
2023-05-22T13:27:24.948Z,32.63
2023-05-22T13:32:28.798Z,32.73
2023-05-22T13:37:32.714Z,31.30
2023-05-22T13:42:37.961Z,31.61
2023-05-22T13:47:41.694Z,31.10
2023-05-22T13:52:45.363Z,31.75
2023-05-22T13:57:50.238Z,30.18
2023-05-22T14:02:55.288Z,30.22
2023-05-22T14:08:00.835Z,31.05
2023-05-22T14:13:04.876Z,31.35
2023-05-22T14:18:08.739Z,30.89
2023-05-22T14:23:13.521Z,31.54
2023-05-22T14:28:19.413Z,30.65
2023-05-22T14:33:23.344Z,31.54
2023-05-22T14:38:27.038Z,31.02
2023-05-22T14:43:32.317Z,30.54
2023-05-22T14:48:36.496Z,30.94
2023-05-22T14:53:42.029Z,31.85
2023-05-22T14:58:46.252Z,31.44
2023-05-22T15:03:50.272Z,30.96
2023-05-22T15:08:55.777Z,30.99
2023-05-22T15:14:00.084Z,31.11
2023-05-22T15:19:04.935Z,30.15
2023-05-22T15:24:09.348Z,30.37
2023-05-22T15:29:13.037Z,31.32
2023-05-22T15:34:17.506Z,30.86
2023-05-22T15:39:21.317Z,31.45
2023-05-22T15:44:24.888Z,31.66
2023-05-22T15:49:31.400Z,31.36
2023-05-22T15:54:36.584Z,31.09
2023-05-22T15:59:40.402Z,31.51
2023-05-22T16:04:50.933Z,31.75
2023-05-22T16:09:57.846Z,31.86
2023-05-22T16:15:02.796Z,32.04
2023-05-22T16:20:09.700Z,32.44
2023-05-22T16:25:15.237Z,32.89
2023-05-22T16:30:21.983Z,33.36
2023-05-22T16:35:28.317Z,33.71
2023-05-22T16:40:38.608Z,34.08
2023-05-22T16:45:46.910Z,34.74
2023-05-22T16:50:50.393Z,35.50
2023-05-22T16:55:54.405Z,36.44
2023-05-22T17:00:58.427Z,37.29
2023-05-22T17:06:03.421Z,37.76
2023-05-22T17:11:07.133Z,38.14
2023-05-22T17:16:10.849Z,38.64
2023-05-22T17:21:14.713Z,39.07
2023-05-22T17:26:18.541Z,39.55
2023-05-22T17:31:23.207Z,40.13
2023-05-22T17:36:27.176Z,40.49
2023-05-22T17:41:31.414Z,41.07
2023-05-22T17:46:35.529Z,41.35
2023-05-22T17:51:39.894Z,41.94
2023-05-22T17:56:45.176Z,42.13
2023-05-22T18:01:49.047Z,43.27
2023-05-22T18:06:53.967Z,43.50
2023-05-22T18:11:59.625Z,43.85
2023-05-22T18:17:04.843Z,44.21
2023-05-22T18:22:08.603Z,44.88
2023-05-22T18:27:12.295Z,45.12
2023-05-22T18:32:15.962Z,45.38
2023-05-22T18:37:19.977Z,46.02
2023-05-22T18:42:24.069Z,46.29
2023-05-22T18:47:28.357Z,47.43
2023-05-22T18:52:34.082Z,47.96
2023-05-22T18:57:38.504Z,48.28
2023-05-22T19:02:43.255Z,48.99
2023-05-22T19:07:49.808Z,48.94
2023-05-22T19:12:55.956Z,49.42
2023-05-22T19:18:02.293Z,50.27
2023-05-22T19:23:07.204Z,50.56
2023-05-22T19:28:11.720Z,50.95
2023-05-22T19:33:18.147Z,51.23
2023-05-22T19:38:22.016Z,51.45
2023-05-22T19:43:26.165Z,52.07
2023-05-22T19:48:32.344Z,52.46
2023-05-22T19:53:36.810Z,52.85
2023-05-22T19:58:40.498Z,53.30
2023-05-22T20:03:46.794Z,53.56
2023-05-22T20:08:52.450Z,54.03
2023-05-22T20:13:56.661Z,55.00
2023-05-22T20:19:00.421Z,55.23
2023-05-22T20:24:06.519Z,55.37
2023-05-22T20:29:10.360Z,55.51
2023-05-22T20:34:14.249Z,55.70
2023-05-22T20:39:20.664Z,55.91
2023-05-22T20:44:24.862Z,56.98
2023-05-22T20:49:31.171Z,57.75
2023-05-22T20:54:36.794Z,57.31
2023-05-22T20:59:41.236Z,57.03
2023-05-22T21:04:44.856Z,57.17
2023-05-22T21:09:48.584Z,57.60
2023-05-22T21:14:52.240Z,57.64
2023-05-22T21:19:56.198Z,58.71
2023-05-22T21:24:59.960Z,58.34
2023-05-22T21:30:04.030Z,58.59
2023-05-22T21:35:09.236Z,58.94
2023-05-22T21:40:26.942Z,59.25
2023-05-22T21:45:31.586Z,59.14
2023-05-22T21:50:35.375Z,59.56
2023-05-22T21:55:39.086Z,59.83
2023-05-22T22:00:43.154Z,60.36
2023-05-22T22:05:47.559Z,60.88
2023-05-22T22:10:51.323Z,61.23
2023-05-22T22:15:55.298Z,61.69
2023-05-22T22:21:02.615Z,62.45
2023-05-22T22:26:06.559Z,62.64
2023-05-22T22:31:10.287Z,63.07
2023-05-22T22:36:13.913Z,63.50
2023-05-22T22:41:17.524Z,64.01
2023-05-22T22:46:23.123Z,63.98
2023-05-22T22:51:32.194Z,64.20
2023-05-22T22:56:36.273Z,64.20
2023-05-22T23:01:40.224Z,64.55
2023-05-22T23:06:46.458Z,64.83
2023-05-22T23:11:50.171Z,65.37
2023-05-22T23:16:54.164Z,65.90
2023-05-22T23:21:57.795Z,65.85
2023-05-22T23:27:01.738Z,65.93
2023-05-22T23:32:05.498Z,66.19
2023-05-22T23:37:09.534Z,66.52
2023-05-22T23:42:13.266Z,66.35
2023-05-22T23:47:18.393Z,67.12
2023-05-22T23:52:22.602Z,67.43
2023-05-22T23:57:26.469Z,67.40
